TimeCST,TemperatureF,Dew PointF,Humidity,Sea Level PressureIn,VisibilityMPH,Wind Direction,Wind SpeedMPH,Gust SpeedMPH,PrecipitationIn,Events,Conditions,WindDirDegrees,DateUTC
12:15 AM,60.8,51.8,72,29.55,10.0,SSE,25.3,32.2,N/A,,Mostly Cloudy,160,2012-12-20 06:15:00
12:35 AM,60.8,53.6,77,29.54,10.0,SSE,24.2,32.2,N/A,,Overcast,160,2012-12-20 06:35:00
12:55 AM,60.8,53.6,77,29.52,10.0,South,20.7,27.6,N/A,,Overcast,170,2012-12-20 06:55:00
1:15 AM,62.6,55.4,77,29.50,10.0,South,26.5,33.4,N/A,,Overcast,170,2012-12-20 07:15:00
1:35 AM,62.6,57.2,82,29.49,10.0,South,28.8,38.0,N/A,,Overcast,170,2012-12-20 07:35:00
1:55 AM,62.6,57.2,82,29.47,10.0,South,28.8,36.8,N/A,,Overcast,170,2012-12-20 07:55:00
2:15 AM,-9999,-9999,N/A,29.54,3.0,WSW,27.6,40.3,0.11,Thunderstorm,Overcast,240,2012-12-20 08:15:00
2:55 AM,57.2,57.2,100,29.53,10.0,SSW,11.5,-,0.20,,Overcast,210,2012-12-20 08:55:00
3:55 AM,55.4,55.4,100,29.49,9.0,South,15.0,-,0.04,,Overcast,180,2012-12-20 09:55:00
4:15 AM,55.4,55.4,100,29.47,10.0,South,16.1,-,0.01,,Mostly Cloudy,180,2012-12-20 10:15:00
4:36 AM,55.4,53.6,94,29.47,10.0,South,21.9,26.5,0.01,,Partly Cloudy,190,2012-12-20 10:36:00
4:55 AM,55.4,53.6,94,29.47,10.0,SSW,23.0,26.5,0.01,,Clear,200,2012-12-20 10:55:00
5:15 AM,55.4,53.6,94,29.48,10.0,SSW,20.7,27.6,N/A,,Partly Cloudy,200,2012-12-20 11:15:00
5:55 AM,53.6,48.2,82,29.50,10.0,SW,23.0,28.8,N/A,,Scattered Clouds,220,2012-12-20 11:55:00
6:15 AM,51.8,44.6,76,29.51,10.0,SW,23.0,26.5,N/A,,Scattered Clouds,230,2012-12-20 12:15:00
6:35 AM,51.8,42.8,71,29.52,10.0,SW,23.0,-,N/A,,Clear,230,2012-12-20 12:35:00
7:15 AM,48.2,39.2,71,29.56,10.0,SW,20.7,28.8,N/A,,Mostly Cloudy,230,2012-12-20 13:15:00
7:35 AM,48.2,39.2,71,29.57,10.0,WSW,18.4,26.5,N/A,,Overcast,240,2012-12-20 13:35:00
7:55 AM,-9999,-9999,N/A,29.60,10.0,West,31.1,41.4,N/A,,Overcast,270,2012-12-20 13:55:00
8:16 AM,-9999,-9999,N/A,29.62,10.0,West,29.9,39.1,N/A,,Overcast,270,2012-12-20 14:16:00
8:35 AM,-9999,-9999,N/A,29.64,10.0,West,32.2,39.1,N/A,,Overcast,270,2012-12-20 14:35:00
8:55 AM,-9999,-9999,N/A,29.66,10.0,West,26.5,35.7,N/A,,Overcast,260,2012-12-20 14:55:00
9:15 AM,-9999,-9999,N/A,29.68,10.0,West,26.5,33.4,N/A,,Overcast,270,2012-12-20 15:15:00
9:35 AM,-9999,-9999,N/A,29.71,10.0,West,21.9,42.6,N/A,,Overcast,260,2012-12-20 15:35:00
9:55 AM,-9999,-9999,N/A,29.72,10.0,West,23.0,33.4,N/A,,Overcast,270,2012-12-20 15:55:00
10:16 AM,-9999,-9999,N/A,29.73,10.0,West,32.2,39.1,N/A,,Overcast,270,2012-12-20 16:16:00
10:35 AM,-9999,-9999,N/A,29.74,10.0,West,32.2,36.8,N/A,,Overcast,260,2012-12-20 16:35:00
10:55 AM,-9999,-9999,N/A,29.76,10.0,West,28.8,40.3,N/A,,Overcast,270,2012-12-20 16:55:00
11:15 AM,-9999,-9999,N/A,29.77,10.0,West,29.9,40.3,N/A,,Overcast,280,2012-12-20 17:15:00
11:35 AM,-9999,-9999,N/A,29.78,10.0,West,27.6,42.6,N/A,,Overcast,270,2012-12-20 17:35:00
11:55 AM,-9999,-9999,N/A,29.79,10.0,West,27.6,38.0,N/A,,Overcast,270,2012-12-20 17:55:00
12:15 PM,-9999,-9999,N/A,29.80,10.0,West,28.8,36.8,N/A,,Overcast,280,2012-12-20 18:15:00
12:35 PM,-9999,-9999,N/A,29.81,10.0,West,21.9,33.4,N/A,,Overcast,270,2012-12-20 18:35:00
12:55 PM,-9999,-9999,N/A,29.82,10.0,West,18.4,33.4,N/A,,Overcast,280,2012-12-20 18:55:00
1:15 PM,-9999,-9999,N/A,29.83,10.0,West,19.6,31.1,N/A,,Overcast,280,2012-12-20 19:15:00
1:35 PM,-9999,-9999,N/A,29.84,10.0,West,25.3,33.4,N/A,,Overcast,280,2012-12-20 19:35:00
1:55 PM,-9999,-9999,N/A,29.85,10.0,WNW,32.2,46.0,N/A,,Overcast,290,2012-12-20 19:55:00
2:15 PM,-9999,-9999,N/A,29.86,10.0,West,28.8,34.5,N/A,,Overcast,280,2012-12-20 20:15:00
2:55 PM,-9999,-9999,N/A,29.91,10.0,West,23.0,40.3,N/A,,Overcast,270,2012-12-20 20:55:00
3:15 PM,-9999,-9999,N/A,29.93,10.0,West,28.8,43.7,N/A,,Overcast,280,2012-12-20 21:15:00
3:35 PM,-9999,-9999,N/A,29.95,10.0,West,24.2,35.7,N/A,,Overcast,270,2012-12-20 21:35:00
3:55 PM,-9999,-9999,N/A,29.96,10.0,West,31.1,36.8,N/A,,Mostly Cloudy,280,2012-12-20 21:55:00
4:15 PM,-9999,-9999,N/A,29.98,10.0,WNW,24.2,36.8,N/A,,Partly Cloudy,290,2012-12-20 22:15:00
4:55 PM,-9999,-9999,N/A,30.00,10.0,West,18.4,29.9,N/A,,Clear,280,2012-12-20 22:55:00
5:15 PM,-9999,-9999,N/A,30.01,10.0,West,20.7,-,N/A,,Clear,280,2012-12-20 23:15:00
5:35 PM,-9999,-9999,N/A,30.02,10.0,West,20.7,27.6,N/A,,Clear,280,2012-12-20 23:35:00
5:55 PM,-9999,-9999,N/A,30.03,10.0,West,23.0,33.4,N/A,,Clear,280,2012-12-20 23:55:00
6:15 PM,-9999,-9999,N/A,30.03,10.0,WNW,28.8,35.7,N/A,,Clear,290,2012-12-21 00:15:00
6:35 PM,-9999,-9999,N/A,30.05,10.0,West,23.0,33.4,N/A,,Clear,280,2012-12-21 00:35:00
6:55 PM,-9999,-9999,N/A,30.06,10.0,WNW,26.5,38.0,N/A,,Clear,290,2012-12-21 00:55:00
7:15 PM,-9999,-9999,N/A,30.08,10.0,WNW,23.0,29.9,N/A,,Clear,300,2012-12-21 01:15:00
7:35 PM,-9999,-9999,N/A,30.09,10.0,WNW,20.7,32.2,N/A,,Clear,290,2012-12-21 01:35:00
7:55 PM,-9999,-9999,N/A,30.10,10.0,WNW,20.7,27.6,N/A,,Clear,290,2012-12-21 01:55:00
8:15 PM,-9999,-9999,N/A,30.10,10.0,West,20.7,27.6,N/A,,Clear,280,2012-12-21 02:15:00
8:55 PM,-9999,-9999,N/A,30.11,10.0,West,19.6,28.8,N/A,,Clear,280,2012-12-21 02:55:00
9:15 PM,-9999,-9999,N/A,30.12,10.0,WNW,18.4,23.0,N/A,,Clear,290,2012-12-21 03:15:00
9:35 PM,-9999,-9999,N/A,30.13,10.0,WNW,17.3,24.2,N/A,,Clear,290,2012-12-21 03:35:00
9:55 PM,-9999,-9999,N/A,30.14,10.0,West,21.9,31.1,N/A,,Clear,280,2012-12-21 03:55:00
10:15 PM,-9999,-9999,N/A,30.15,10.0,West,16.1,25.3,N/A,,Clear,280,2012-12-21 04:15:00
11:15 PM,-9999,-9999,N/A,30.17,10.0,West,15.0,20.7,N/A,,Clear,270,2012-12-21 05:15:00
11:35 PM,-9999,-9999,N/A,30.17,10.0,West,17.3,23.0,N/A,,Clear,280,2012-12-21 05:35:00
11:55 PM,-9999,-9999,N/A,30.17,10.0,WNW,18.4,24.2,N/A,,Clear,290,2012-12-21 05:55:00